Time;durP1;ratioP1;P1;durP2;ratioP2;P2;SDS_P1;SDS_P2;PMS_P1;PMS_P2;Temp;Humidity;BMP_temperature;BMP_pressure;BME280_temperature;BME280_humidity;BME280_pressure;Samples;Min_cycle;Max_cycle;Signal;HPM_P1;HPM_P2
2021/12/17 00:00:24;;;;;;;9.27;8.30;;;;;;;6.47;98.59;100142.09;5031901;28;20201;-58
2021/12/17 00:03:11;;;;;;;9.60;8.00;;;;;;;6.43;99.50;100136.06;5031594;28;20229;-59
2021/12/17 00:05:50;;;;;;;10.43;8.30;;;;;;;6.40;99.50;100138.69;5031740;28;20201;-58
2021/12/17 00:08:18;;;;;;;10.73;7.77;;;;;;;6.39;99.08;100149.84;5031842;28;20193;-59
2021/12/17 00:10:49;;;;;;;8.67;7.77;;;;;;;6.32;98.62;100124.91;5031787;28;20201;-64
2021/12/17 00:13:17;;;;;;;8.13;7.33;;;;;;;6.45;97.88;100133.50;5032033;28;20293;-64
2021/12/17 00:15:45;;;;;;;10.17;7.33;;;;;;;6.42;98.07;100128.38;5031592;28;20281;-65
2021/12/17 00:18:18;;;;;;;8.73;7.60;;;;;;;6.30;98.31;100124.09;5031682;28;20283;-65
2021/12/17 00:48:35;;;;;;;8.67;7.67;;;;;;;6.14;98.94;100124.97;5031105;28;20203;-60
2021/12/17 00:51:40;;;;;;;10.50;8.43;;;;;;;6.09;98.75;100103.50;5031083;28;20672;-63
2021/12/17 00:54:18;;;;;;;9.87;7.90;;;;;;;6.21;98.41;100136.97;5030627;28;20263;-65
2021/12/17 00:56:45;;;;;;;9.73;7.80;;;;;;;6.25;98.46;100133.53;5030892;28;20204;-60
2021/12/17 00:59:12;;;;;;;8.47;7.67;;;;;;;6.28;98.40;100133.53;5030689;28;20221;-58
2021/12/17 01:01:39;;;;;;;9.33;7.70;;;;;;;6.32;98.28;100127.50;5030737;28;20196;-59
2021/12/17 01:04:06;;;;;;;10.67;8.13;;;;;;;6.31;98.45;100136.13;5030556;28;20231;-59
2021/12/17 01:06:33;;;;;;;8.03;7.33;;;;;;;6.16;98.11;100106.06;5030815;28;20669;-58
2021/12/17 01:09:01;;;;;;;8.27;7.40;;;;;;;6.29;98.38;100126.66;5030789;28;20675;-59
2021/12/17 01:11:30;;;;;;;9.20;8.03;;;;;;;6.15;98.79;100104.34;5030676;28;20244;-59
2021/12/17 01:13:57;;;;;;;9.20;7.60;;;;;;;6.30;98.08;100118.94;5030545;28;20204;-59
2021/12/17 01:16:24;;;;;;;10.87;7.43;;;;;;;6.33;98.21;100121.47;5030696;28;20197;-59
2021/12/17 01:19:00;;;;;;;9.40;8.03;;;;;;;6.32;98.17;100117.19;5030527;28;20221;-59
2021/12/17 01:21:36;;;;;;;8.10;7.30;;;;;;;6.15;98.24;100080.28;5030517;28;20220;-59
2021/12/17 01:24:16;;;;;;;8.50;7.60;;;;;;;6.38;96.70;100122.34;5030397;28;20570;-65
2021/12/17 01:43:23;;;;;;;8.00;7.20;;;;;;;6.27;98.37;100095.72;5030089;28;20196;-58
2021/12/17 01:45:50;;;;;;;9.40;6.97;;;;;;;6.41;96.44;100108.59;5030275;28;20288;-58
2021/12/17 01:48:25;;;;;;;9.60;7.37;;;;;;;6.37;97.16;100110.31;5030125;28;20196;-64
2021/12/17 01:56:38;;;;;;;9.60;7.63;;;;;;;6.21;97.49;100098.31;5030077;28;20192;-58
2021/12/17 01:59:33;;;;;;;10.33;7.50;;;;;;;6.06;98.86;100060.56;5029967;28;20315;-58
2021/12/17 02:02:04;;;;;;;8.07;6.80;;;;;;;6.20;98.58;100106.94;5029879;28;20346;-59
2021/12/17 02:04:32;;;;;;;8.90;7.87;;;;;;;6.20;98.78;100106.94;5030089;28;20201;-58
2021/12/17 02:07:00;;;;;;;8.43;7.57;;;;;;;6.17;99.45;100107.78;5030502;28;20730;-59
2021/12/17 02:10:17;;;;;;;8.40;7.50;;;;;;;6.16;98.59;100100.91;5030129;28;20715;-58
2021/12/17 02:12:59;;;;;;;10.80;7.83;;;;;;;6.12;99.05;100100.91;5029858;28;20253;-58
2021/12/17 02:32:20;;;;;;;10.00;8.57;;;;;;;6.05;100.00;100089.75;5026193;28;20208;-58
2021/12/17 02:35:02;;;;;;;10.10;8.10;;;;;;;6.04;100.00;100090.63;5029787;28;20585;-59
2021/12/17 02:37:33;;;;;;;9.17;7.80;;;;;;;6.01;100.00;100079.44;5029791;28;20204;-65
2021/12/17 02:40:14;;;;;;;9.30;8.30;;;;;;;6.07;100.00;100082.88;5032501;28;20225;-64
2021/12/17 02:45:32;;;;;;;9.43;7.50;;;;;;;6.10;100.00;100082.84;5033385;28;20197;-64
2021/12/17 02:45:41;;;;;;;9.23;7.90;;;;;;;6.01;99.93;100075.16;5033193;28;20280;-65
2021/12/17 02:48:10;;;;;;;9.87;8.03;;;;;;;5.91;100.00;100077.75;5033294;28;20284;-65
2021/12/17 02:50:41;;;;;;;8.50;7.67;;;;;;;5.89;100.00;100076.88;5033244;28;20239;-65
2021/12/17 02:53:10;;;;;;;9.03;7.90;;;;;;;5.86;100.00;100074.28;5033368;28;20208;-59
2021/12/17 02:55:39;;;;;;;8.27;7.13;;;;;;;5.89;100.00;100071.72;5033188;28;20274;-59
2021/12/17 02:58:08;;;;;;;11.60;7.90;;;;;;;5.82;100.00;100084.59;5033057;28;20679;-59
2021/12/17 03:00:36;;;;;;;9.33;7.40;;;;;;;5.80;100.00;100096.59;5033340;28;20739;-65
2021/12/17 03:03:06;;;;;;;9.00;7.73;;;;;;;5.79;100.00;100091.47;5033425;28;20264;-59
2021/12/17 03:05:34;;;;;;;10.10;8.27;;;;;;;5.93;100.00;100087.19;5033166;28;20206;-59
2021/12/17 03:08:02;;;;;;;10.53;7.60;;;;;;;5.89;100.00;100093.19;5033155;28;20193;-59
2021/12/17 03:10:30;;;;;;;8.43;7.03;;;;;;;5.92;100.00;100089.75;5032823;28;20287;-59
2021/12/17 03:13:00;;;;;;;8.73;7.33;;;;;;;5.79;100.00;100079.44;5033078;28;20197;-60
2021/12/17 03:15:34;;;;;;;8.33;7.10;;;;;;;5.94;100.00;100077.75;5032768;28;20280;-64
2021/12/17 03:23:32;;;;;;;8.00;6.97;;;;;;;5.96;100.00;100081.19;5032879;28;20227;-58
2021/12/17 03:26:03;;;;;;;10.23;7.97;;;;;;;5.86;100.00;100076.88;5032628;28;20239;-58
2021/12/17 03:28:31;;;;;;;12.60;7.63;;;;;;;5.93;100.00;100091.50;5032660;28;20264;-58
2021/12/17 03:30:58;;;;;;;9.97;8.13;;;;;;;5.89;100.00;100093.19;5032677;28;20614;-58
2021/12/17 03:33:25;;;;;;;8.73;7.37;;;;;;;5.91;100.00;100093.19;5032401;28;20194;-59
2021/12/17 03:35:53;;;;;;;8.77;7.80;;;;;;;5.89;100.00;100092.34;5032551;28;20232;-59
2021/12/17 03:38:20;;;;;;;8.50;7.70;;;;;;;5.86;100.00;100089.75;5032295;28;20197;-65
2021/12/17 03:40:52;;;;;;;10.43;8.53;;;;;;;5.92;100.00;100082.03;5032505;28;20202;-65
2021/12/17 03:43:22;;;;;;;9.13;8.07;;;;;;;5.91;100.00;100077.75;5032759;28;20201;-59
2021/12/17 03:45:49;;;;;;;10.43;8.33;;;;;;;5.86;100.00;100058.84;5032496;28;20582;-59
2021/12/17 03:48:17;;;;;;;10.03;8.33;;;;;;;5.93;100.00;100074.31;5032312;28;20207;-65
2021/12/17 03:50:44;;;;;;;9.70;8.00;;;;;;;6.02;100.00;100076.00;5031881;28;20236;-64
2021/12/17 03:53:11;;;;;;;9.60;8.60;;;;;;;6.03;100.00;100075.16;5032132;28;20201;-65
2021/12/17 03:55:38;;;;;;;12.37;8.40;;;;;;;6.00;100.00;100067.41;5032184;28;20212;-65
2021/12/17 03:58:05;;;;;;;12.57;8.90;;;;;;;5.79;100.00;100042.50;5032251;28;20193;-58
2021/12/17 04:00:34;;;;;;;10.17;8.57;;;;;;;5.87;100.00;100050.25;5031919;28;20215;-58
2021/12/17 04:03:02;;;;;;;9.17;7.47;;;;;;;6.01;100.00;100070.00;5031869;28;20240;-58
2021/12/17 04:05:29;;;;;;;11.40;8.20;;;;;;;6.02;100.00;100073.44;5031877;28;20205;-59
2021/12/17 04:07:56;;;;;;;9.10;8.17;;;;;;;6.02;100.00;100058.84;5032066;28;20669;-64
2021/12/17 04:10:25;;;;;;;9.77;8.00;;;;;;;6.20;100.00;100060.53;5031867;28;20286;-59
2021/12/17 04:12:57;;;;;;;8.63;7.40;;;;;;;6.18;100.00;100075.13;5032167;28;20288;-63
2021/12/17 04:15:33;;;;;;;8.40;7.60;;;;;;;6.12;100.00;100068.25;5031618;28;20278;-65
2021/12/17 04:18:07;;;;;;;10.53;7.57;;;;;;;6.28;100.00;100068.22;5031746;28;20207;-64
2021/12/17 04:20:34;;;;;;;8.23;7.23;;;;;;;6.21;100.00;100067.38;5031713;28;20606;-58
2021/12/17 04:23:01;;;;;;;8.80;7.30;;;;;;;6.23;100.00;100064.78;5031629;28;20199;-59
2021/12/17 04:25:29;;;;;;;7.67;6.93;;;;;;;6.16;100.00;100045.94;5031537;28;20284;-65
2021/12/17 04:27:56;;;;;;;8.03;7.20;;;;;;;6.29;100.00;100049.34;5031734;28;20570;-66
2021/12/17 04:30:23;;;;;;;7.43;6.73;;;;;;;5.96;100.00;99986.72;5031429;28;20228;-66
2021/12/17 04:32:50;;;;;;;8.23;7.20;;;;;;;6.40;100.00;100053.59;5031466;28;20232;-66
2021/12/17 04:35:19;;;;;;;8.30;6.97;;;;;;;6.41;100.00;100057.03;5031315;28;20597;-59
2021/12/17 04:37:46;;;;;;;9.10;7.00;;;;;;;6.45;100.00;100061.28;5031355;28;20691;-59
2021/12/17 04:40:13;;;;;;;8.57;7.33;;;;;;;6.48;100.00;100071.59;5030915;28;20311;-65
2021/12/17 04:42:51;;;;;;;7.47;6.67;;;;;;;6.46;100.00;100069.03;5031301;28;20337;-65
2021/12/17 04:45:19;;;;;;;9.00;7.37;;;;;;;6.46;99.90;100058.72;5030958;28;20251;-66
2021/12/17 04:58:45;;;;;;;8.57;7.30;;;;;;;6.59;99.30;100061.25;5030887;28;20668;-59
2021/12/17 05:01:14;;;;;;;7.80;6.83;;;;;;;6.53;100.00;100069.88;5030249;28;20208;-59
2021/12/17 05:03:41;;;;;;;7.30;6.37;;;;;;;6.53;100.00;100063.00;5030740;28;20237;-59
2021/12/17 05:06:10;;;;;;;8.50;7.60;;;;;;;6.53;100.00;100068.16;5031032;28;20681;-59
2021/12/17 05:08:37;;;;;;;7.97;7.07;;;;;;;6.49;100.00;100063.00;5030076;28;20691;-59
2021/12/17 05:11:21;;;;;;;9.13;7.17;;;;;;;6.48;99.87;100061.28;5032243;28;20281;-59
2021/12/17 05:19:25;;;;;;;8.13;7.27;;;;;;;6.37;100.00;100056.16;5029914;28;20220;-59
2021/12/17 05:21:54;;;;;;;8.67;7.50;;;;;;;6.32;100.00;100055.31;5036392;28;20216;-59
2021/12/17 05:24:21;;;;;;;7.70;6.93;;;;;;;6.37;100.00;100055.31;5038377;28;20193;-58
2021/12/17 05:26:48;;;;;;;7.93;7.13;;;;;;;6.39;100.00;100048.44;5044351;28;20646;-59
2021/12/17 05:29:15;;;;;;;8.50;7.40;;;;;;;6.33;100.00;100045.84;5050140;28;20193;-58
2021/12/17 05:31:42;;;;;;;7.90;7.10;;;;;;;6.31;100.00;100043.31;5050421;28;20572;-64
2021/12/17 05:34:09;;;;;;;9.37;7.47;;;;;;;6.34;100.00;100032.97;5030134;28;20233;-58
2021/12/17 05:36:36;;;;;;;9.10;7.30;;;;;;;6.40;100.00;100027.81;5010282;28;20225;-67
2021/12/17 05:39:05;;;;;;;7.60;6.90;;;;;;;6.37;100.00;100017.50;5010068;28;20253;-66
2021/12/17 05:41:31;;;;;;;9.53;6.73;;;;;;;6.35;100.00;100014.06;5010233;28;20222;-66
2021/12/17 05:43:59;;;;;;;7.87;6.90;;;;;;;6.48;100.00;100015.72;5010040;28;20305;-58
2021/12/17 05:46:38;;;;;;;10.33;6.57;;;;;;;6.40;100.00;100007.19;5022149;28;20221;-66
2021/12/17 05:49:06;;;;;;;9.83;6.53;;;;;;;6.54;99.15;100027.75;5029174;28;20754;-58
2021/12/17 05:51:33;;;;;;;8.17;6.60;;;;;;;6.46;99.40;99995.97;5029136;28;20209;-58
2021/12/17 05:54:00;;;;;;;7.40;6.17;;;;;;;6.53;98.59;100008.00;5030285;28;20280;-58
2021/12/17 05:56:28;;;;;;;9.80;6.57;;;;;;;6.52;97.75;99988.22;5029835;28;20201;-58
2021/12/17 05:58:56;;;;;;;8.40;7.17;;;;;;;6.43;98.03;99989.09;5030079;28;20208;-58
2021/12/17 06:01:24;;;;;;;8.47;6.90;;;;;;;6.52;97.67;100012.28;5035399;28;20208;-60
2021/12/17 06:03:50;;;;;;;8.40;6.87;;;;;;;6.57;97.30;100010.53;5040181;28;20308;-64
2021/12/17 06:06:27;;;;;;;7.27;6.53;;;;;;;6.57;98.24;100007.94;5031216;28;20228;-64
2021/12/17 06:08:54;;;;;;;7.13;6.43;;;;;;;6.62;97.71;100022.56;5029513;28;20687;-64
2021/12/17 06:11:21;;;;;;;7.97;6.33;;;;;;;6.38;97.96;99988.28;5029168;28;20193;-64
2021/12/17 06:13:49;;;;;;;8.17;7.00;;;;;;;6.61;97.38;100026.84;5032401;28;20203;-61
2021/12/17 06:16:16;;;;;;;7.57;6.87;;;;;;;6.67;97.31;100016.50;5033862;28;20311;-64
2021/12/17 06:18:44;;;;;;;9.13;7.23;;;;;;;6.66;98.26;100019.09;5034054;28;20204;-63
2021/12/17 06:21:11;;;;;;;12.27;6.40;;;;;;;6.64;97.94;100018.25;5033860;28;20243;-63
2021/12/17 06:23:39;;;;;;;8.90;6.63;;;;;;;6.69;97.43;100021.66;5033841;28;20198;-63
2021/12/17 06:26:06;;;;;;;9.40;6.97;;;;;;;6.68;96.82;100027.66;5033771;28;20740;-63
2021/12/17 06:28:33;;;;;;;9.70;7.40;;;;;;;6.78;97.60;100034.50;5033044;28;20197;-63
2021/12/17 06:31:01;;;;;;;9.07;7.23;;;;;;;6.68;97.62;100040.56;5030447;28;20578;-63
2021/12/17 06:33:28;;;;;;;9.53;7.77;;;;;;;6.70;96.64;100000.16;5032601;28;20228;-56
2021/12/17 06:35:55;;;;;;;9.43;7.33;;;;;;;6.79;97.95;100010.41;5032887;28;20213;-56
2021/12/17 06:38:24;;;;;;;9.63;7.10;;;;;;;6.87;96.91;100008.66;5029556;28;20693;-57
2021/12/17 06:40:53;;;;;;;10.80;7.13;;;;;;;6.80;97.20;100010.41;5032169;28;20228;-56
2021/12/17 06:43:23;;;;;;;11.87;6.97;;;;;;;6.83;97.28;100014.69;5032887;28;20708;-56
2021/12/17 06:45:55;;;;;;;9.90;6.90;;;;;;;6.86;97.12;100022.44;5033126;28;20225;-56
2021/12/17 06:48:28;;;;;;;8.03;7.23;;;;;;;6.95;97.45;100022.38;5032867;28;20348;-57
2021/12/17 07:10:28;;;;;;;200.70;18.57;;;;;;;7.01;98.09;100042.09;5005981;28;20286;-65
2021/12/17 07:21:22;;;;;;;91.57;12.60;;;;;;;7.19;98.19;100036.84;5013578;28;20558;-64
2021/12/17 07:32:35;;;;;;;17.30;7.80;;;;;;;7.27;99.50;100033.34;5052140;28;20216;-64
2021/12/17 07:35:26;;;;;;;10.03;7.30;;;;;;;7.32;99.62;100025.56;5031299;28;20747;-58
2021/12/17 07:40:38;;;;;;;10.17;7.17;;;;;;;7.41;99.08;99996.22;5031495;28;20251;-65
2021/12/17 07:43:12;;;;;;;9.80;7.07;;;;;;;7.64;98.22;100036.50;5032415;28;20217;-65
2021/12/17 07:45:39;;;;;;;14.30;7.10;;;;;;;7.60;98.63;100031.34;5031638;28;20240;-66
2021/12/17 07:48:07;;;;;;;13.13;6.97;;;;;;;7.68;98.82;100021.81;5031730;28;20225;-56
2021/12/17 07:50:34;;;;;;;7.50;6.00;;;;;;;7.81;98.27;100017.38;5031895;28;20252;-57
2021/12/17 07:53:03;;;;;;;6.73;6.03;;;;;;;7.94;97.41;100025.00;5031746;28;20264;-58
2021/12/17 07:55:30;;;;;;;13.27;8.73;;;;;;;7.99;97.01;100023.25;5030794;28;20681;-57
2021/12/17 07:57:57;;;;;;;6.97;6.23;;;;;;;8.01;96.63;100015.47;5037585;28;20315;-59
2021/12/17 08:00:24;;;;;;;6.70;6.07;;;;;;;8.10;96.88;100014.50;5042347;28;20240;-58
2021/12/17 08:02:51;;;;;;;6.80;5.57;;;;;;;8.09;96.03;100005.03;5031556;28;20241;-58
2021/12/17 08:05:19;;;;;;;11.93;7.03;;;;;;;8.17;95.80;99995.47;5031739;28;20603;-58
2021/12/17 08:07:46;;;;;;;11.73;9.30;;;;;;;8.33;94.69;100003.06;5031794;28;20667;-58
2021/12/17 08:10:14;;;;;;;8.63;7.37;;;;;;;8.41;93.11;100005.56;5030896;28;20324;-59
2021/12/17 08:12:41;;;;;;;9.87;7.70;;;;;;;8.34;92.74;100003.94;5031666;28;20312;-58
2021/12/17 08:15:11;;;;;;;151.23;14.57;;;;;;;8.49;92.91;100006.31;5031244;28;20312;-58
2021/12/17 08:18:07;;;;;;;214.87;17.17;;;;;;;8.53;92.25;100001.97;5031410;28;20221;-58
2021/12/17 08:23:59;;;;;;;20.77;8.07;;;;;;;8.66;92.55;99991.44;5031009;28;20286;-58
2021/12/17 08:26:24;;;;;;;12.80;6.90;;;;;;;8.81;91.65;99994.66;5030982;28;20290;-57
2021/12/17 08:29:22;;;;;;;7.10;6.43;;;;;;;8.97;91.37;99993.59;5044814;28;20229;-58
2021/12/17 08:31:46;;;;;;;9.37;6.13;;;;;;;8.75;91.25;99982.69;5050653;28;20228;-58
2021/12/17 08:34:13;;;;;;;6.93;5.60;;;;;;;8.54;93.03;99988.16;5045928;28;20663;-65
2021/12/17 08:36:40;;;;;;;10.87;6.50;;;;;;;8.44;93.99;99991.75;5029894;28;20225;-67
2021/12/17 08:39:07;;;;;;;11.43;7.20;;;;;;;8.66;93.21;99996.63;5030246;28;20229;-65
2021/12/17 08:41:36;;;;;;;11.23;6.47;;;;;;;8.89;93.34;99987.66;5030917;28;20312;-66
2021/12/17 08:44:03;;;;;;;22.13;7.37;;;;;;;9.19;91.24;99987.22;5030653;28;20229;-68
2021/12/17 08:46:30;;;;;;;16.43;7.63;;;;;;;9.28;90.58;99966.34;5029545;28;20217;-66
2021/12/17 08:48:58;;;;;;;9.70;6.80;;;;;;;9.48;89.64;99991.06;5029733;28;20227;-67
2021/12/17 08:51:25;;;;;;;7.73;6.20;;;;;;;9.23;90.10;99983.69;5029170;28;20221;-66
2021/12/17 08:53:52;;;;;;;7.87;6.20;;;;;;;9.19;90.18;99987.22;5029089;28;20589;-68
2021/12/17 08:56:22;;;;;;;6.40;5.77;;;;;;;9.17;90.51;99968.25;5029338;28;20313;-67
2021/12/17 08:58:53;;;;;;;8.47;5.80;;;;;;;9.23;90.76;99975.06;5040320;28;20228;-66
2021/12/17 09:01:20;;;;;;;5.30;4.60;;;;;;;9.22;90.94;99974.22;5049491;28;20247;-67
2021/12/17 09:03:47;;;;;;;5.50;5.10;;;;;;;9.23;90.65;99965.56;5049944;28;20767;-66
2021/12/17 09:06:15;;;;;;;43.17;7.47;;;;;;;9.05;91.21;99939.94;5047421;28;20346;-67
2021/12/17 09:08:42;;;;;;;11.27;5.70;;;;;;;9.13;91.88;99958.81;5029833;28;20216;-66
2021/12/17 09:11:09;;;;;;;32.83;7.00;;;;;;;8.93;93.23;99947.91;5030237;28;20608;-66
2021/12/17 09:13:36;;;;;;;16.83;5.63;;;;;;;8.82;94.46;99918.72;5030767;28;20227;-70
2021/12/17 09:16:06;;;;;;;52.10;8.00;;;;;;;8.97;93.89;99934.03;5030116;28;20221;-68
2021/12/17 09:18:34;;;;;;;22.23;6.13;;;;;;;9.02;94.17;99932.25;5029967;28;20224;-68
2021/12/17 09:21:01;;;;;;;30.97;6.67;;;;;;;9.13;94.39;99925.16;5029925;28;20229;-68
2021/12/17 09:23:28;;;;;;;13.50;4.50;;;;;;;9.05;94.40;99914.06;5029245;28;20317;-66
2021/12/17 09:25:55;;;;;;;6.00;4.73;;;;;;;9.16;94.16;99919.06;5030477;28;20755;-67
2021/12/17 09:28:22;;;;;;;5.73;5.10;;;;;;;9.17;93.42;99900.91;5039484;28;20224;-67
2021/12/17 09:30:51;;;;;;;8.63;5.67;;;;;;;9.45;93.27;99902.16;5050205;28;20777;-67
2021/12/17 09:33:19;;;;;;;8.93;4.77;;;;;;;9.51;92.76;99895.13;5029412;28;20229;-66
2021/12/17 09:35:46;;;;;;;13.57;6.77;;;;;;;9.70;91.64;99901.69;5029993;28;20257;-67
2021/12/17 09:38:13;;;;;;;10.30;5.97;;;;;;;9.76;91.98;99897.22;5028992;28;20311;-67
2021/12/17 09:40:40;;;;;;;18.63;6.30;;;;;;;9.79;91.99;99891.16;5029816;28;20229;-67
2021/12/17 09:43:08;;;;;;;13.70;7.00;;;;;;;9.76;92.32;99881.69;5029709;28;20231;-66
2021/12/17 09:45:35;;;;;;;5.87;4.47;;;;;;;9.47;93.25;99881.41;5029756;28;20264;-67
2021/12/17 09:48:03;;;;;;;8.33;5.63;;;;;;;9.57;93.88;99884.66;5029306;28;20221;-66
2021/12/17 09:50:32;;;;;;;53.43;8.73;;;;;;;9.45;94.13;99850.31;5029575;28;20243;-67
2021/12/17 09:52:59;;;;;;;25.77;6.57;;;;;;;9.53;94.75;99873.50;5029026;28;20221;-68
2021/12/17 09:55:27;;;;;;;20.73;6.20;;;;;;;9.49;94.93;99866.66;5029854;28;20251;-67
2021/12/17 09:57:54;;;;;;;13.80;5.27;;;;;;;9.50;94.96;99862.31;5035482;28;20307;-66
2021/12/17 10:00:24;;;;;;;10.23;5.07;;;;;;;9.41;96.20;99871.13;5049533;28;20704;-66
2021/12/17 10:02:52;;;;;;;5.33;4.73;;;;;;;9.37;95.92;99872.91;5049471;28;20629;-66
2021/12/17 10:05:21;;;;;;;7.93;4.60;;;;;;;9.27;96.34;99861.00;5049297;28;20216;-67
2021/12/17 10:07:55;;;;;;;6.63;5.30;;;;;;;9.23;97.42;99846.44;5048888;28;20220;-67
2021/12/17 10:10:22;;;;;;;8.37;4.87;;;;;;;9.29;97.50;99841.13;5047047;28;20220;-66
2021/12/17 10:12:53;;;;;;;7.43;5.67;;;;;;;9.36;97.26;99840.13;5028920;28;20228;-65
2021/12/17 10:15:21;;;;;;;8.53;6.43;;;;;;;9.38;97.67;99838.34;5028770;28;20312;-66
2021/12/17 10:17:54;;;;;;;5.37;4.87;;;;;;;9.35;98.36;99833.25;5028949;28;20221;-58
2021/12/17 10:20:21;;;;;;;5.10;4.53;;;;;;;9.30;98.03;99829.03;5029027;28;20588;-58
2021/12/17 10:22:57;;;;;;;4.80;4.40;;;;;;;9.44;98.43;99824.44;5028580;28;20223;-58
2021/12/17 10:25:25;;;;;;;6.43;4.43;;;;;;;9.31;98.99;99813.47;5028853;28;20216;-58
2021/12/17 10:27:57;;;;;;;6.87;4.00;;;;;;;9.34;99.15;99818.59;5030345;28;20221;-59
2021/12/17 10:30:25;;;;;;;4.80;4.40;;;;;;;9.28;100.00;99800.56;5028780;28;20221;-59
2021/12/17 10:32:54;;;;;;;5.30;4.73;;;;;;;9.23;100.00;99801.53;5029067;28;20312;-57
2021/12/17 10:35:22;;;;;;;5.30;4.60;;;;;;;9.21;100.00;99796.38;5029056;28;20232;-62
2021/12/17 10:37:56;;;;;;;5.47;4.70;;;;;;;9.22;100.00;99798.09;5028711;28;20732;-63
2021/12/17 10:40:26;;;;;;;9.07;5.00;;;;;;;9.34;100.00;99784.91;5028907;28;20239;-63
2021/12/17 10:43:03;;;;;;;6.13;5.60;;;;;;;9.50;100.00;99789.78;5029336;28;20252;-61
2021/12/17 10:45:33;;;;;;;6.30;5.80;;;;;;;9.51;100.00;99775.94;5029412;28;20715;-61
2021/12/17 10:51:18;;;;;;;8.50;6.03;;;;;;;9.37;100.00;99769.28;5028990;28;20220;-62
2021/12/17 10:53:53;;;;;;;16.00;5.90;;;;;;;9.37;100.00;99755.47;5028486;28;20253;-61
2021/12/17 10:56:22;;;;;;;50.13;9.87;;;;;;;9.39;98.63;99757.16;5029533;28;20255;-61
2021/12/17 10:59:00;;;;;;;18.23;6.13;;;;;;;9.38;98.24;99754.59;5042124;28;20627;-61
2021/12/17 11:01:46;;;;;;;23.03;6.57;;;;;;;9.35;98.17;99752.94;5052216;28;20228;-60
2021/12/17 11:04:19;;;;;;;13.83;5.83;;;;;;;9.36;97.45;99748.63;5052387;28;20224;-62
2021/12/17 11:06:52;;;;;;;14.37;5.13;;;;;;;9.44;97.22;99755.34;5052338;28;20255;-62
2021/12/17 11:09:41;;;;;;;428.30;33.03;;;;;;;9.60;96.83;99744.63;5052571;28;20220;-61
2021/12/17 11:12:27;;;;;;;134.60;14.23;;;;;;;9.76;95.99;99743.44;5035745;28;20675;-61
2021/12/17 11:14:56;;;;;;;68.10;9.37;;;;;;;9.84;95.42;99739.78;5031757;28;20208;-62
2021/12/17 11:17:23;;;;;;;18.23;6.20;;;;;;;9.79;96.46;99741.66;5032835;28;20297;-61
2021/12/17 11:19:53;;;;;;;13.37;6.13;;;;;;;9.82;96.02;99738.97;5032658;28;20288;-61
2021/12/17 11:22:21;;;;;;;12.00;5.80;;;;;;;9.71;96.60;99740.94;5032499;28;20236;-61
2021/12/17 11:24:50;;;;;;;11.57;5.87;;;;;;;9.78;96.18;99733.91;5032688;28;20201;-65
2021/12/17 11:27:18;;;;;;;8.10;5.90;;;;;;;9.83;95.68;99732.03;5032693;28;20201;-63
2021/12/17 11:29:45;;;;;;;5.70;5.20;;;;;;;9.74;94.76;99721.88;5032567;28;20229;-61
2021/12/17 11:32:13;;;;;;;6.07;5.40;;;;;;;9.65;93.91;99706.53;5032476;28;20193;-62
2021/12/17 11:34:43;;;;;;;5.67;4.70;;;;;;;9.82;94.15;99707.00;5032559;28;20635;-61
2021/12/17 11:37:10;;;;;;;9.20;6.20;;;;;;;9.73;94.00;99704.63;5032380;28;20284;-61
2021/12/17 11:39:42;;;;;;;8.33;5.63;;;;;;;9.74;93.29;99688.19;5032547;28;20203;-62
2021/12/17 11:42:28;;;;;;;7.20;5.17;;;;;;;9.79;93.38;99705.34;5032440;28;20700;-62
2021/12/17 11:47:37;;;;;;;12.53;5.73;;;;;;;9.91;93.82;99699.03;5031969;28;20672;-64
2021/12/17 11:50:07;;;;;;;38.60;6.90;;;;;;;10.01;93.59;99684.97;5032331;28;20686;-62
2021/12/17 11:52:42;;;;;;;19.57;6.00;;;;;;;10.03;93.37;99687.53;5032080;28;20200;-62
2021/12/17 11:55:35;;;;;;;33.83;7.50;;;;;;;10.08;93.98;99693.44;5032184;28;20655;-60
2021/12/17 11:58:06;;;;;;;35.20;6.03;;;;;;;10.13;94.08;99695.06;5022444;28;20280;-62
2021/12/17 12:00:51;;;;;;;40.13;7.90;;;;;;;10.19;94.00;99684.53;5031500;28;20201;-63
2021/12/17 12:03:20;;;;;;;21.80;6.30;;;;;;;10.22;93.81;99678.44;5026013;28;20320;-63
2021/12/17 12:05:48;;;;;;;13.27;5.50;;;;;;;10.25;94.22;99674.91;5031896;28;20208;-64
2021/12/17 12:08:27;;;;;;;11.07;4.93;;;;;;;10.18;93.75;99672.47;5030727;28;20600;-65
2021/12/17 12:11:09;;;;;;;12.07;5.83;;;;;;;10.07;94.09;99674.44;5030715;28;20196;-64
2021/12/17 12:13:40;;;;;;;10.90;6.03;;;;;;;10.00;94.47;99662.50;5029199;28;20202;-63
2021/12/17 12:16:09;;;;;;;6.17;5.30;;;;;;;10.02;95.36;99660.75;5028130;28;20193;-64
2021/12/17 12:18:49;;;;;;;6.80;4.83;;;;;;;10.10;94.72;99653.63;5031500;28;20197;-64
2021/12/17 12:21:17;;;;;;;7.53;4.57;;;;;;;10.03;93.80;99627.88;5031648;28;20351;-64
2021/12/17 12:23:47;;;;;;;10.03;5.10;;;;;;;10.09;93.55;99657.09;5031703;28;20658;-64
2021/12/17 12:26:33;;;;;;;7.77;5.97;;;;;;;10.08;93.81;99655.38;5031249;28;20292;-64
2021/12/17 12:29:10;;;;;;;6.37;5.77;;;;;;;10.05;94.36;99650.28;5030524;28;20621;-64
2021/12/17 12:31:42;;;;;;;14.20;5.97;;;;;;;10.01;94.05;99648.66;5031142;28;20201;-62
2021/12/17 12:34:12;;;;;;;6.13;5.57;;;;;;;9.95;94.44;99643.59;5029760;28;20212;-61
2021/12/17 12:36:51;;;;;;;9.33;7.50;;;;;;;9.89;95.12;99654.13;5031179;28;20264;-61
2021/12/17 12:39:21;;;;;;;7.23;6.43;;;;;;;9.90;94.86;99648.06;5031109;28;20205;-62
2021/12/17 12:41:49;;;;;;;6.77;6.17;;;;;;;9.91;94.46;99642.00;5030826;28;20264;-61
2021/12/17 12:44:17;;;;;;;6.27;5.73;;;;;;;10.00;95.18;99631.41;5031126;28;20284;-63
2021/12/17 12:46:53;;;;;;;15.73;6.80;;;;;;;10.08;94.75;99623.41;5031190;28;20200;-61
2021/12/17 12:49:42;;;;;;;6.90;5.67;;;;;;;10.01;95.55;99611.50;5031082;28;20262;-62
2021/12/17 12:52:26;;;;;;;6.27;4.47;;;;;;;9.94;95.92;99617.72;5030833;28;20688;-61
2021/12/17 12:54:54;;;;;;;49.67;7.80;;;;;;;9.89;96.33;99620.44;5030909;28;20205;-64
2021/12/17 12:57:25;;;;;;;7.27;4.77;;;;;;;9.78;97.31;99633.66;5030822;28;20280;-64
2021/12/17 12:59:56;;;;;;;7.07;4.90;;;;;;;9.71;97.80;99634.66;5030842;28;20664;-61
2021/12/17 13:02:25;;;;;;;5.10;4.80;;;;;;;9.73;98.30;99634.63;5030390;28;20237;-60
2021/12/17 13:04:55;;;;;;;9.73;5.37;;;;;;;9.72;98.05;99638.13;5030944;28;20201;-60
2021/12/17 13:07:35;;;;;;;19.30;5.43;;;;;;;9.72;97.54;99640.72;5030735;28;20711;-62
2021/12/17 13:10:11;;;;;;;86.07;9.43;;;;;;;9.69;97.56;99631.28;5030805;28;20287;-61
2021/12/17 13:12:38;;;;;;;13.73;5.57;;;;;;;9.60;98.56;99635.81;5030382;28;20280;-60
2021/12/17 13:15:19;;;;;;;91.43;10.70;;;;;;;9.57;98.65;99638.50;5030343;28;20201;-61
2021/12/17 13:21:02;;;;;;;168.30;13.80;;;;;;;9.51;99.63;99636.00;5030343;28;20604;-64
2021/12/17 13:23:32;;;;;;;31.03;6.70;;;;;;;9.17;99.47;99582.38;5029483;28;20201;-63
2021/12/17 13:26:11;;;;;;;11.53;5.13;;;;;;;9.51;99.40;99647.25;5030304;28;20197;-61
2021/12/17 13:28:55;;;;;;;7.17;5.20;;;;;;;9.41;100.00;99644.00;5029770;28;20201;-66
2021/12/17 13:31:54;;;;;;;9.60;5.97;;;;;;;9.40;100.00;99642.28;5030245;28;20380;-67
2021/12/17 13:34:27;;;;;;;11.90;10.37;;;;;;;9.35;100.00;99638.97;5030263;28;20201;-64
2021/12/17 13:36:58;;;;;;;13.43;7.27;;;;;;;9.35;100.00;99641.56;5030485;28;20260;-67
2021/12/17 13:39:27;;;;;;;19.87;8.90;;;;;;;9.33;100.00;99629.53;5030371;28;20749;-64
2021/12/17 13:41:54;;;;;;;11.57;7.33;;;;;;;9.26;100.00;99631.38;5030080;28;20613;-65
2021/12/17 13:44:31;;;;;;;14.90;7.47;;;;;;;9.34;100.00;99629.50;5030366;28;20588;-63
2021/12/17 13:47:21;;;;;;;7.77;5.20;;;;;;;9.31;100.00;99629.56;5030316;28;20661;-63
2021/12/17 13:49:50;;;;;;;7.47;5.07;;;;;;;9.27;100.00;99627.91;5009990;28;20201;-63
2021/12/17 13:52:18;;;;;;;8.83;5.17;;;;;;;9.17;99.88;99631.56;5008971;28;20719;-62
2021/12/17 13:54:49;;;;;;;13.03;5.70;;;;;;;9.18;100.00;99622.94;5010120;28;20204;-64
2021/12/17 13:57:17;;;;;;;6.57;5.33;;;;;;;9.08;100.00;99632.63;5010498;28;20593;-62
2021/12/17 13:59:46;;;;;;;5.70;5.20;;;;;;;8.98;100.00;99612.16;5010730;28;20720;-62
2021/12/17 14:02:15;;;;;;;4.40;4.00;;;;;;;9.06;100.00;99623.19;5029373;28;20277;-62
2021/12/17 14:04:58;;;;;;;4.90;4.50;;;;;;;9.08;100.00;99611.06;5029510;28;20225;-63
2021/12/17 14:07:29;;;;;;;16.83;4.67;;;;;;;8.99;100.00;99612.13;5029687;28;21095;-63
2021/12/17 14:09:59;;;;;;;14.33;4.50;;;;;;;8.90;100.00;99609.72;5029603;28;20221;-63